createdAt,value
2019-05-13T06:19:04.208Z,43.60
2019-05-13T06:29:07.430Z,40.70
2019-05-13T06:39:12.348Z,29.80
2019-05-13T06:49:15.763Z,26.50
2019-05-13T06:59:19.193Z,25.20
2019-05-13T07:09:22.279Z,27.60
2019-05-13T07:19:26.404Z,27.20
2019-05-13T07:29:32.186Z,27.80
2019-05-13T07:39:37.246Z,25.20
2019-05-13T07:49:42.007Z,24.20
2019-05-13T07:59:45.357Z,22.20
2019-05-13T08:11:01.077Z,22.40
2019-05-13T08:21:04.335Z,25.30
2019-05-13T08:31:07.627Z,27.80
2019-05-13T08:41:18.851Z,27.50
2019-05-13T08:51:15.588Z,27.10
2019-05-13T09:01:22.516Z,24.60
2019-05-13T09:11:24.746Z,22.30
2019-05-13T09:21:28.485Z,28.50
2019-05-13T09:31:32.370Z,31.00
2019-05-13T09:41:40.841Z,34.90
2019-05-13T09:51:41.698Z,28.90
2019-05-13T10:01:44.934Z,29.50
2019-05-13T10:11:48.095Z,25.80
2019-05-13T10:21:52.470Z,29.30
2019-05-13T10:31:56.054Z,31.10
2019-05-13T10:41:59.051Z,32.10
2019-05-13T10:52:03.182Z,31.00
2019-05-13T11:02:07.286Z,31.30
2019-05-13T11:12:12.227Z,32.20
2019-05-13T11:22:15.805Z,30.70
2019-05-13T11:32:21.618Z,31.50
2019-05-13T11:42:25.117Z,29.50
2019-05-13T11:52:28.599Z,28.10
2019-05-13T12:02:32.663Z,24.60
2019-05-13T12:12:35.985Z,27.10
2019-05-13T12:22:39.223Z,27.40
2019-05-13T12:32:43.688Z,25.90
2019-05-13T12:42:47.479Z,26.10
2019-05-13T12:52:51.585Z,27.90
2019-05-13T13:02:54.983Z,29.30
2019-05-13T13:13:22.426Z,29.00
2019-05-13T13:23:24.306Z,28.70
2019-05-13T13:33:28.754Z,28.80
2019-05-13T13:43:36.981Z,26.60
2019-05-13T13:53:38.606Z,28.20
2019-05-13T14:03:46.085Z,28.70
2019-05-13T14:13:46.712Z,28.50
2019-05-13T14:32:12.224Z,26.80
2019-05-13T14:42:13.809Z,29.70
2019-05-13T14:52:15.325Z,29.20
2019-05-13T15:02:17.181Z,28.50
2019-05-13T15:12:21.452Z,29.00
2019-05-13T15:22:22.923Z,31.80
2019-05-13T15:32:24.480Z,29.50
2019-05-13T15:42:26.029Z,29.30
2019-05-13T15:52:27.663Z,28.50
2019-05-13T16:02:31.322Z,27.50
2019-05-13T16:12:32.605Z,29.30
2019-05-13T16:22:34.065Z,29.20
2019-05-13T16:32:35.803Z,29.60
2019-05-13T16:42:37.466Z,30.70
2019-05-13T16:52:39.089Z,31.60
2019-05-13T17:02:42.153Z,32.10
2019-05-13T17:12:44.003Z,29.30
2019-05-13T17:22:45.721Z,29.60
2019-05-13T17:32:47.201Z,29.40
2019-05-13T17:42:48.767Z,29.30
2019-05-13T17:52:51.377Z,29.40
2019-05-13T18:02:53.371Z,30.10
2019-05-13T18:12:54.854Z,34.30
2019-05-13T18:22:56.298Z,41.80
2019-05-13T18:33:01.040Z,43.90
2019-05-13T18:43:02.268Z,47.50
2019-05-13T18:53:03.789Z,48.10
2019-05-13T19:03:05.466Z,49.40
2019-05-13T19:13:06.953Z,50.50
2019-05-13T19:23:08.533Z,52.60
2019-05-13T19:33:12.107Z,54.50
2019-05-13T19:43:13.592Z,57.60
2019-05-13T19:53:15.020Z,57.80
2019-05-13T20:03:16.693Z,59.40
2019-05-13T20:13:18.389Z,61.80
2019-05-13T20:23:21.300Z,62.70
2019-05-13T20:33:22.933Z,65.00
2019-05-13T20:43:24.398Z,67.40
2019-05-13T20:53:25.938Z,71.30
2019-05-13T21:03:28.500Z,71.90
2019-05-13T21:13:31.810Z,75.70
2019-05-13T21:23:33.357Z,76.60
2019-05-13T21:33:34.960Z,78.40
2019-05-13T21:43:36.954Z,81.80
2019-05-13T21:53:38.387Z,85.10
2019-05-13T22:03:42.030Z,86.90
